sensor_id;sensor_type;location;lat;lon;timestamp;pressure;altitude;pressure_sealevel;temperature
65569;BMP180;52211;50.154;8.682;2023-12-20T08:39:17;100154.00;;;6.10
65569;BMP180;52211;50.154;8.682;2023-12-20T08:41:44;100147.00;;;7.00
65569;BMP180;52211;50.154;8.682;2023-12-20T08:44:13;100154.00;;;7.80
65569;BMP180;52211;50.154;8.682;2023-12-20T08:46:43;100152.00;;;8.30
65569;BMP180;52211;50.154;8.682;2023-12-20T08:49:12;100150.00;;;8.70
65569;BMP180;52211;50.154;8.682;2023-12-20T08:51:44;100148.00;;;9.00
65569;BMP180;52211;50.154;8.682;2023-12-20T08:59:52;100140.00;;;8.70
65569;BMP180;52211;50.154;8.682;2023-12-20T09:02:21;100146.00;;;9.00
65569;BMP180;52211;50.154;8.682;2023-12-20T09:04:50;100152.00;;;9.30
65569;BMP180;52211;50.154;8.682;2023-12-20T09:07:26;100144.00;;;9.50
65569;BMP180;52211;50.154;8.682;2023-12-20T09:09:54;100144.00;;;9.70
65569;BMP180;52211;50.154;8.682;2023-12-20T09:12:21;100135.00;;;9.90
65569;BMP180;52211;50.154;8.682;2023-12-20T09:14:51;100132.00;;;10.00
65569;BMP180;52211;50.154;8.682;2023-12-20T09:17:23;100138.00;;;10.10
65569;BMP180;52211;50.154;8.682;2023-12-20T09:19:53;100137.00;;;10.20
65569;BMP180;52211;50.154;8.682;2023-12-20T09:22:21;100143.00;;;10.30
65569;BMP180;52211;50.154;8.682;2023-12-20T09:24:50;100145.00;;;10.40
65569;BMP180;52211;50.154;8.682;2023-12-20T09:27:19;100147.00;;;10.50
65569;BMP180;52211;50.154;8.682;2023-12-20T09:29:47;100149.00;;;10.50
65569;BMP180;52211;50.154;8.682;2023-12-20T09:32:17;100153.00;;;10.60
65569;BMP180;52211;50.154;8.682;2023-12-20T09:34:50;100150.00;;;10.60
65569;BMP180;52211;50.154;8.682;2023-12-20T09:37:17;100141.00;;;10.70
65569;BMP180;52211;50.154;8.682;2023-12-20T09:39:46;100147.00;;;10.70
65569;BMP180;52211;50.154;8.682;2023-12-20T09:42:33;100142.00;;;10.70
65569;BMP180;52211;50.154;8.682;2023-12-20T09:45:02;100151.00;;;10.80
65569;BMP180;52211;50.154;8.682;2023-12-20T09:47:35;100150.00;;;10.80
65569;BMP180;52211;50.154;8.682;2023-12-20T09:50:03;100151.00;;;10.80
65569;BMP180;52211;50.154;8.682;2023-12-20T09:52:36;100149.00;;;10.80
65569;BMP180;52211;50.154;8.682;2023-12-20T09:55:07;100155.00;;;10.80
65569;BMP180;52211;50.154;8.682;2023-12-20T09:57:34;100156.00;;;10.90
65569;BMP180;52211;50.154;8.682;2023-12-20T10:00:01;100161.00;;;10.90
65569;BMP180;52211;50.154;8.682;2023-12-20T10:02:44;100149.00;;;10.90
65569;BMP180;52211;50.154;8.682;2023-12-20T10:05:17;100146.00;;;11.00
65569;BMP180;52211;50.154;8.682;2023-12-20T10:07:47;100160.00;;;11.00
65569;BMP180;52211;50.154;8.682;2023-12-20T10:10:15;100138.00;;;11.00
65569;BMP180;52211;50.154;8.682;2023-12-20T10:13:04;100134.00;;;11.00
65569;BMP180;52211;50.154;8.682;2023-12-20T10:15:33;100134.00;;;11.10
65569;BMP180;52211;50.154;8.682;2023-12-20T10:18:03;100139.00;;;11.10
65569;BMP180;52211;50.154;8.682;2023-12-20T10:20:31;100132.00;;;11.10
65569;BMP180;52211;50.154;8.682;2023-12-20T10:23:00;100124.00;;;11.10
65569;BMP180;52211;50.154;8.682;2023-12-20T10:25:28;100124.00;;;11.10
65569;BMP180;52211;50.154;8.682;2023-12-20T10:28:12;100121.00;;;11.10
65569;BMP180;52211;50.154;8.682;2023-12-20T10:30:41;100109.00;;;11.20
65569;BMP180;52211;50.154;8.682;2023-12-20T10:33:10;100103.00;;;11.20
65569;BMP180;52211;50.154;8.682;2023-12-20T10:35:40;100111.00;;;11.20
65569;BMP180;52211;50.154;8.682;2023-12-20T10:38:14;100088.00;;;11.20
65569;BMP180;52211;50.154;8.682;2023-12-20T10:40:45;100088.00;;;11.20
65569;BMP180;52211;50.154;8.682;2023-12-20T10:43:17;100085.00;;;11.30
65569;BMP180;52211;50.154;8.682;2023-12-20T10:45:47;100087.00;;;11.30
65569;BMP180;52211;50.154;8.682;2023-12-20T10:48:18;100075.00;;;11.30
65569;BMP180;52211;50.154;8.682;2023-12-20T10:50:45;100074.00;;;11.30
65569;BMP180;52211;50.154;8.682;2023-12-20T10:53:13;100064.00;;;11.40
65569;BMP180;52211;50.154;8.682;2023-12-20T10:55:44;100062.00;;;11.40
65569;BMP180;52211;50.154;8.682;2023-12-20T10:58:15;100074.00;;;11.40
65569;BMP180;52211;50.154;8.682;2023-12-20T11:00:45;100058.00;;;11.40
65569;BMP180;52211;50.154;8.682;2023-12-20T11:03:15;100050.00;;;11.40
65569;BMP180;52211;50.154;8.682;2023-12-20T11:09:10;100061.00;;;11.50
65569;BMP180;52211;50.154;8.682;2023-12-20T11:12:06;100062.00;;;11.50
65569;BMP180;52211;50.154;8.682;2023-12-20T11:17:14;100051.00;;;11.60
65569;BMP180;52211;50.154;8.682;2023-12-20T11:22:24;100050.00;;;11.70
65569;BMP180;52211;50.154;8.682;2023-12-20T11:24:58;100067.00;;;11.70
65569;BMP180;52211;50.154;8.682;2023-12-20T11:27:27;100064.00;;;11.80
65569;BMP180;52211;50.154;8.682;2023-12-20T11:29:58;100073.00;;;11.80
65569;BMP180;52211;50.154;8.682;2023-12-20T11:35:20;100064.00;;;12.00
65569;BMP180;52211;50.154;8.682;2023-12-20T11:37:51;100064.00;;;12.10
65569;BMP180;52211;50.154;8.682;2023-12-20T11:40:18;100049.00;;;12.10
65569;BMP180;52211;50.154;8.682;2023-12-20T11:42:50;100054.00;;;12.20
65569;BMP180;52211;50.154;8.682;2023-12-20T11:45:23;100048.00;;;12.20
65569;BMP180;52211;50.154;8.682;2023-12-20T11:47:55;100054.00;;;12.30
65569;BMP180;52211;50.154;8.682;2023-12-20T11:50:27;100066.00;;;12.30
65569;BMP180;52211;50.154;8.682;2023-12-20T11:52:57;100057.00;;;12.40
65569;BMP180;52211;50.154;8.682;2023-12-20T11:55:24;100050.00;;;12.40
65569;BMP180;52211;50.154;8.682;2023-12-20T11:57:54;100059.00;;;12.40
65569;BMP180;52211;50.154;8.682;2023-12-20T12:00:24;100052.00;;;12.40
65569;BMP180;52211;50.154;8.682;2023-12-20T12:03:00;100045.00;;;12.40
65569;BMP180;52211;50.154;8.682;2023-12-20T12:05:31;100049.00;;;12.50
65569;BMP180;52211;50.154;8.682;2023-12-20T12:07:59;100052.00;;;12.50
65569;BMP180;52211;50.154;8.682;2023-12-20T12:10:26;100037.00;;;12.50
65569;BMP180;52211;50.154;8.682;2023-12-20T12:12:56;100032.00;;;12.50
65569;BMP180;52211;50.154;8.682;2023-12-20T12:15:25;100022.00;;;12.50
65569;BMP180;52211;50.154;8.682;2023-12-20T12:17:57;100022.00;;;12.50
65569;BMP180;52211;50.154;8.682;2023-12-20T12:20:29;100029.00;;;12.60
65569;BMP180;52211;50.154;8.682;2023-12-20T12:23:08;100026.00;;;12.70
65569;BMP180;52211;50.154;8.682;2023-12-20T12:25:38;100031.00;;;12.80
65569;BMP180;52211;50.154;8.682;2023-12-20T12:28:09;100040.00;;;12.90
65569;BMP180;52211;50.154;8.682;2023-12-20T12:30:39;100040.00;;;13.00
65569;BMP180;52211;50.154;8.682;2023-12-20T12:33:21;100035.00;;;13.10
65569;BMP180;52211;50.154;8.682;2023-12-20T12:35:48;100047.00;;;13.40
65569;BMP180;52211;50.154;8.682;2023-12-20T12:38:24;100039.00;;;13.70
65569;BMP180;52211;50.154;8.682;2023-12-20T12:40:54;100028.00;;;14.10
65569;BMP180;52211;50.154;8.682;2023-12-20T12:43:23;100015.00;;;14.50
65569;BMP180;52211;50.154;8.682;2023-12-20T12:45:53;100020.00;;;14.80
65569;BMP180;52211;50.154;8.682;2023-12-20T12:48:23;100028.00;;;15.10
65569;BMP180;52211;50.154;8.682;2023-12-20T12:50:53;100017.00;;;15.30
65569;BMP180;52211;50.154;8.682;2023-12-20T12:53:21;100010.00;;;15.60
65569;BMP180;52211;50.154;8.682;2023-12-20T12:55:48;99997.00;;;15.80
65569;BMP180;52211;50.154;8.682;2023-12-20T12:58:17;99991.00;;;16.00
65569;BMP180;52211;50.154;8.682;2023-12-20T13:00:48;99990.00;;;16.20
65569;BMP180;52211;50.154;8.682;2023-12-20T13:03:16;99991.00;;;16.30
65569;BMP180;52211;50.154;8.682;2023-12-20T13:05:43;99993.00;;;16.40
65569;BMP180;52211;50.154;8.682;2023-12-20T13:08:14;99987.00;;;16.30
65569;BMP180;52211;50.154;8.682;2023-12-20T13:10:46;99971.00;;;16.20
65569;BMP180;52211;50.154;8.682;2023-12-20T13:13:15;99964.00;;;16.00
65569;BMP180;52211;50.154;8.682;2023-12-20T13:15:48;99963.00;;;15.80
65569;BMP180;52211;50.154;8.682;2023-12-20T13:18:22;99959.00;;;15.60
65569;BMP180;52211;50.154;8.682;2023-12-20T13:20:50;99956.00;;;15.40
65569;BMP180;52211;50.154;8.682;2023-12-20T13:23:19;99957.00;;;15.10
65569;BMP180;52211;50.154;8.682;2023-12-20T13:25:46;99956.00;;;15.00
65569;BMP180;52211;50.154;8.682;2023-12-20T13:28:13;99955.00;;;14.80
65569;BMP180;52211;50.154;8.682;2023-12-20T13:30:41;99942.00;;;14.60
65569;BMP180;52211;50.154;8.682;2023-12-20T13:33:08;99933.00;;;14.50
65569;BMP180;52211;50.154;8.682;2023-12-20T13:35:35;99934.00;;;14.40
65569;BMP180;52211;50.154;8.682;2023-12-20T13:38:06;99937.00;;;14.20
65569;BMP180;52211;50.154;8.682;2023-12-20T13:40:36;99925.00;;;14.10
65569;BMP180;52211;50.154;8.682;2023-12-20T13:43:06;99932.00;;;14.00
65569;BMP180;52211;50.154;8.682;2023-12-20T13:45:35;99932.00;;;13.90
65569;BMP180;52211;50.154;8.682;2023-12-20T13:48:05;99939.00;;;13.80
65569;BMP180;52211;50.154;8.682;2023-12-20T13:50:31;99933.00;;;13.70
65569;BMP180;52211;50.154;8.682;2023-12-20T13:53:03;99942.00;;;13.60
65569;BMP180;52211;50.154;8.682;2023-12-20T13:55:33;99939.00;;;13.50
65569;BMP180;52211;50.154;8.682;2023-12-20T13:58:03;99930.00;;;13.40
65569;BMP180;52211;50.154;8.682;2023-12-20T14:00:37;99937.00;;;13.40
65569;BMP180;52211;50.154;8.682;2023-12-20T14:03:04;99954.00;;;13.30
65569;BMP180;52211;50.154;8.682;2023-12-20T14:05:35;99937.00;;;13.30
65569;BMP180;52211;50.154;8.682;2023-12-20T14:08:05;99939.00;;;13.20
65569;BMP180;52211;50.154;8.682;2023-12-20T14:10:37;99947.00;;;13.20
65569;BMP180;52211;50.154;8.682;2023-12-20T14:13:05;99941.00;;;13.10
65569;BMP180;52211;50.154;8.682;2023-12-20T14:15:34;99937.00;;;13.10
65569;BMP180;52211;50.154;8.682;2023-12-20T14:18:09;99931.00;;;13.00
65569;BMP180;52211;50.154;8.682;2023-12-20T14:20:37;99927.00;;;13.00
65569;BMP180;52211;50.154;8.682;2023-12-20T14:23:06;99937.00;;;13.00
65569;BMP180;52211;50.154;8.682;2023-12-20T14:25:33;99940.00;;;12.90
65569;BMP180;52211;50.154;8.682;2023-12-20T14:28:17;99929.00;;;12.90
65569;BMP180;52211;50.154;8.682;2023-12-20T14:30:44;99923.00;;;12.90
65569;BMP180;52211;50.154;8.682;2023-12-20T14:33:18;99911.00;;;12.90
65569;BMP180;52211;50.154;8.682;2023-12-20T14:35:48;99915.00;;;12.90
65569;BMP180;52211;50.154;8.682;2023-12-20T14:38:15;99918.00;;;12.90
65569;BMP180;52211;50.154;8.682;2023-12-20T14:40:44;99926.00;;;12.90
65569;BMP180;52211;50.154;8.682;2023-12-20T14:43:13;99922.00;;;12.80
65569;BMP180;52211;50.154;8.682;2023-12-20T14:45:40;99919.00;;;12.80
65569;BMP180;52211;50.154;8.682;2023-12-20T14:48:14;99908.00;;;12.80
65569;BMP180;52211;50.154;8.682;2023-12-20T14:50:43;99894.00;;;12.80
65569;BMP180;52211;50.154;8.682;2023-12-20T14:53:15;99900.00;;;12.80
65569;BMP180;52211;50.154;8.682;2023-12-20T14:55:50;99913.00;;;12.70
65569;BMP180;52211;50.154;8.682;2023-12-20T14:58:22;99927.00;;;12.70
65569;BMP180;52211;50.154;8.682;2023-12-20T15:00:52;99917.00;;;12.70
65569;BMP180;52211;50.154;8.682;2023-12-20T15:03:22;99912.00;;;12.70
65569;BMP180;52211;50.154;8.682;2023-12-20T15:05:54;99928.00;;;12.70
65569;BMP180;52211;50.154;8.682;2023-12-20T15:08:23;99917.00;;;12.70
65569;BMP180;52211;50.154;8.682;2023-12-20T15:10:53;99914.00;;;12.70
65569;BMP180;52211;50.154;8.682;2023-12-20T15:13:24;99919.00;;;12.70
65569;BMP180;52211;50.154;8.682;2023-12-20T15:15:53;99927.00;;;12.60
65569;BMP180;52211;50.154;8.682;2023-12-20T15:18:21;99935.00;;;12.60
65569;BMP180;52211;50.154;8.682;2023-12-20T15:20:50;99928.00;;;12.60
65569;BMP180;52211;50.154;8.682;2023-12-20T15:23:19;99917.00;;;12.60
65569;BMP180;52211;50.154;8.682;2023-12-20T15:25:53;99938.00;;;12.60
65569;BMP180;52211;50.154;8.682;2023-12-20T15:28:23;99922.00;;;12.50
65569;BMP180;52211;50.154;8.682;2023-12-20T15:30:50;99916.00;;;12.50
65569;BMP180;52211;50.154;8.682;2023-12-20T15:33:19;99929.00;;;12.50
65569;BMP180;52211;50.154;8.682;2023-12-20T15:35:46;99918.00;;;12.50
65569;BMP180;52211;50.154;8.682;2023-12-20T15:38:13;99917.00;;;12.50
65569;BMP180;52211;50.154;8.682;2023-12-20T15:40:46;99917.00;;;12.50
65569;BMP180;52211;50.154;8.682;2023-12-20T15:43:13;99935.00;;;12.50
65569;BMP180;52211;50.154;8.682;2023-12-20T15:45:42;99906.00;;;12.50
65569;BMP180;52211;50.154;8.682;2023-12-20T15:48:09;99903.00;;;12.40
65569;BMP180;52211;50.154;8.682;2023-12-20T15:50:38;99913.00;;;12.50
65569;BMP180;52211;50.154;8.682;2023-12-20T15:53:05;99916.00;;;12.40
65569;BMP180;52211;50.154;8.682;2023-12-20T15:55:31;99907.00;;;12.40
65569;BMP180;52211;50.154;8.682;2023-12-20T15:58:01;99903.00;;;12.40
65569;BMP180;52211;50.154;8.682;2023-12-20T16:00:32;99904.00;;;12.40
65569;BMP180;52211;50.154;8.682;2023-12-20T16:02:59;99909.00;;;12.40
65569;BMP180;52211;50.154;8.682;2023-12-20T16:05:28;99912.00;;;12.40
65569;BMP180;52211;50.154;8.682;2023-12-20T16:07:58;99902.00;;;12.40
65569;BMP180;52211;50.154;8.682;2023-12-20T16:10:25;99907.00;;;12.40
65569;BMP180;52211;50.154;8.682;2023-12-20T16:12:55;99909.00;;;12.40
65569;BMP180;52211;50.154;8.682;2023-12-20T16:15:27;99908.00;;;12.30
65569;BMP180;52211;50.154;8.682;2023-12-20T16:17:56;99910.00;;;12.30
65569;BMP180;52211;50.154;8.682;2023-12-20T16:20:30;99903.00;;;12.30
65569;BMP180;52211;50.154;8.682;2023-12-20T16:23:02;99904.00;;;12.40
65569;BMP180;52211;50.154;8.682;2023-12-20T16:25:29;99910.00;;;12.30
65569;BMP180;52211;50.154;8.682;2023-12-20T16:27:58;99913.00;;;12.30
65569;BMP180;52211;50.154;8.682;2023-12-20T16:30:29;99916.00;;;12.30
65569;BMP180;52211;50.154;8.682;2023-12-20T16:32:59;99923.00;;;12.30
65569;BMP180;52211;50.154;8.682;2023-12-20T16:35:26;99926.00;;;12.30
65569;BMP180;52211;50.154;8.682;2023-12-20T16:37:53;99928.00;;;12.30
65569;BMP180;52211;50.154;8.682;2023-12-20T16:40:20;99935.00;;;12.30
65569;BMP180;52211;50.154;8.682;2023-12-20T16:42:54;99932.00;;;12.20
65569;BMP180;52211;50.154;8.682;2023-12-20T16:45:26;99938.00;;;12.20
65569;BMP180;52211;50.154;8.682;2023-12-20T16:47:55;99932.00;;;12.20
65569;BMP180;52211;50.154;8.682;2023-12-20T16:50:26;99922.00;;;12.20
65569;BMP180;52211;50.154;8.682;2023-12-20T16:52:56;99925.00;;;12.20
65569;BMP180;52211;50.154;8.682;2023-12-20T16:55:25;99922.00;;;12.20
65569;BMP180;52211;50.154;8.682;2023-12-20T16:57:52;99917.00;;;12.20
65569;BMP180;52211;50.154;8.682;2023-12-20T17:00:24;99908.00;;;12.20
65569;BMP180;52211;50.154;8.682;2023-12-20T17:02:55;99925.00;;;12.20
65569;BMP180;52211;50.154;8.682;2023-12-20T17:05:27;99916.00;;;12.20
65569;BMP180;52211;50.154;8.682;2023-12-20T17:07:58;99912.00;;;12.10
65569;BMP180;52211;50.154;8.682;2023-12-20T17:10:27;99913.00;;;12.10
65569;BMP180;52211;50.154;8.682;2023-12-20T17:12:59;99909.00;;;12.10
65569;BMP180;52211;50.154;8.682;2023-12-20T17:15:28;99918.00;;;12.10
65569;BMP180;52211;50.154;8.682;2023-12-20T17:17:55;99900.00;;;12.10
65569;BMP180;52211;50.154;8.682;2023-12-20T17:20:28;99908.00;;;12.10
65569;BMP180;52211;50.154;8.682;2023-12-20T17:22:57;99912.00;;;12.10
65569;BMP180;52211;50.154;8.682;2023-12-20T17:25:30;99916.00;;;12.10
65569;BMP180;52211;50.154;8.682;2023-12-20T17:27:57;99911.00;;;12.10
65569;BMP180;52211;50.154;8.682;2023-12-20T17:30:26;99915.00;;;12.10
65569;BMP180;52211;50.154;8.682;2023-12-20T17:32:58;99917.00;;;12.10
65569;BMP180;52211;50.154;8.682;2023-12-20T17:35:30;99928.00;;;12.10
65569;BMP180;52211;50.154;8.682;2023-12-20T17:37:56;99918.00;;;12.20
65569;BMP180;52211;50.154;8.682;2023-12-20T17:40:23;99910.00;;;12.20
65569;BMP180;52211;50.154;8.682;2023-12-20T17:42:50;99913.00;;;12.20
65569;BMP180;52211;50.154;8.682;2023-12-20T17:45:20;99928.00;;;12.20
65569;BMP180;52211;50.154;8.682;2023-12-20T17:47:52;99931.00;;;12.20
65569;BMP180;52211;50.154;8.682;2023-12-20T17:50:19;99921.00;;;12.20
65569;BMP180;52211;50.154;8.682;2023-12-20T17:52:48;99935.00;;;12.20
65569;BMP180;52211;50.154;8.682;2023-12-20T17:55:22;99915.00;;;12.20
65569;BMP180;52211;50.154;8.682;2023-12-20T17:57:52;99914.00;;;12.20
65569;BMP180;52211;50.154;8.682;2023-12-20T18:00:24;99917.00;;;12.20
65569;BMP180;52211;50.154;8.682;2023-12-20T18:02:51;99912.00;;;12.20
65569;BMP180;52211;50.154;8.682;2023-12-20T18:05:21;99903.00;;;12.20
65569;BMP180;52211;50.154;8.682;2023-12-20T18:07:53;99896.00;;;12.20
65569;BMP180;52211;50.154;8.682;2023-12-20T18:10:21;99907.00;;;12.10
65569;BMP180;52211;50.154;8.682;2023-12-20T18:12:50;99890.00;;;12.10
65569;BMP180;52211;50.154;8.682;2023-12-20T18:15:17;99894.00;;;12.10
65569;BMP180;52211;50.154;8.682;2023-12-20T18:17:47;99883.00;;;12.10
65569;BMP180;52211;50.154;8.682;2023-12-20T18:20:16;99877.00;;;12.10
65569;BMP180;52211;50.154;8.682;2023-12-20T18:22:44;99870.00;;;12.10
65569;BMP180;52211;50.154;8.682;2023-12-20T18:25:11;99885.00;;;12.10
65569;BMP180;52211;50.154;8.682;2023-12-20T18:27:40;99891.00;;;12.10
65569;BMP180;52211;50.154;8.682;2023-12-20T18:30:10;99893.00;;;12.10
65569;BMP180;52211;50.154;8.682;2023-12-20T18:32:45;99884.00;;;12.10
65569;BMP180;52211;50.154;8.682;2023-12-20T18:35:12;99883.00;;;12.10
65569;BMP180;52211;50.154;8.682;2023-12-20T18:37:42;99885.00;;;12.10
65569;BMP180;52211;50.154;8.682;2023-12-20T18:40:14;99890.00;;;12.10
65569;BMP180;52211;50.154;8.682;2023-12-20T18:42:41;99876.00;;;12.10
65569;BMP180;52211;50.154;8.682;2023-12-20T18:45:13;99876.00;;;12.10
65569;BMP180;52211;50.154;8.682;2023-12-20T18:47:44;99881.00;;;12.10
65569;BMP180;52211;50.154;8.682;2023-12-20T18:50:16;99890.00;;;12.10
65569;BMP180;52211;50.154;8.682;2023-12-20T18:52:46;99871.00;;;12.10
65569;BMP180;52211;50.154;8.682;2023-12-20T18:55:13;99872.00;;;12.10
65569;BMP180;52211;50.154;8.682;2023-12-20T18:57:40;99869.00;;;12.10
65569;BMP180;52211;50.154;8.682;2023-12-20T19:00:10;99864.00;;;12.10
65569;BMP180;52211;50.154;8.682;2023-12-20T19:02:38;99869.00;;;12.10
65569;BMP180;52211;50.154;8.682;2023-12-20T19:05:07;99855.00;;;12.10
65569;BMP180;52211;50.154;8.682;2023-12-20T19:07:36;99851.00;;;12.10
65569;BMP180;52211;50.154;8.682;2023-12-20T19:10:04;99860.00;;;12.10
65569;BMP180;52211;50.154;8.682;2023-12-20T19:12:34;99856.00;;;12.10
65569;BMP180;52211;50.154;8.682;2023-12-20T19:15:05;99854.00;;;12.10
65569;BMP180;52211;50.154;8.682;2023-12-20T19:17:32;99853.00;;;12.10
65569;BMP180;52211;50.154;8.682;2023-12-20T19:20:01;99838.00;;;12.10
65569;BMP180;52211;50.154;8.682;2023-12-20T19:22:28;99846.00;;;12.10
65569;BMP180;52211;50.154;8.682;2023-12-20T19:24:59;99834.00;;;12.10
65569;BMP180;52211;50.154;8.682;2023-12-20T19:27:33;99830.00;;;12.10
65569;BMP180;52211;50.154;8.682;2023-12-20T19:30:00;99830.00;;;12.10
65569;BMP180;52211;50.154;8.682;2023-12-20T19:32:28;99839.00;;;12.10
65569;BMP180;52211;50.154;8.682;2023-12-20T19:34:58;99833.00;;;12.10
65569;BMP180;52211;50.154;8.682;2023-12-20T19:37:28;99828.00;;;12.10
65569;BMP180;52211;50.154;8.682;2023-12-20T19:39:55;99838.00;;;12.20
65569;BMP180;52211;50.154;8.682;2023-12-20T19:42:26;99844.00;;;12.20
65569;BMP180;52211;50.154;8.682;2023-12-20T19:44:55;99833.00;;;12.20
65569;BMP180;52211;50.154;8.682;2023-12-20T19:47:23;99836.00;;;12.20
65569;BMP180;52211;50.154;8.682;2023-12-20T19:49:52;99828.00;;;12.20
65569;BMP180;52211;50.154;8.682;2023-12-20T19:52:25;99841.00;;;12.10
65569;BMP180;52211;50.154;8.682;2023-12-20T19:54:55;99826.00;;;12.10
65569;BMP180;52211;50.154;8.682;2023-12-20T19:57:22;99822.00;;;12.10
65569;BMP180;52211;50.154;8.682;2023-12-20T19:59:49;99820.00;;;12.10
65569;BMP180;52211;50.154;8.682;2023-12-20T20:02:18;99804.00;;;12.10
65569;BMP180;52211;50.154;8.682;2023-12-20T20:04:45;99806.00;;;12.10
65569;BMP180;52211;50.154;8.682;2023-12-20T20:07:13;99800.00;;;12.10
65569;BMP180;52211;50.154;8.682;2023-12-20T20:09:52;99812.00;;;12.10
65569;BMP180;52211;50.154;8.682;2023-12-20T20:12:23;99806.00;;;12.10
65569;BMP180;52211;50.154;8.682;2023-12-20T20:14:54;99799.00;;;12.10
65569;BMP180;52211;50.154;8.682;2023-12-20T20:17:27;99793.00;;;12.10
65569;BMP180;52211;50.154;8.682;2023-12-20T20:19:56;99786.00;;;12.10
65569;BMP180;52211;50.154;8.682;2023-12-20T20:22:28;99785.00;;;12.00
65569;BMP180;52211;50.154;8.682;2023-12-20T20:24:57;99778.00;;;12.00
65569;BMP180;52211;50.154;8.682;2023-12-20T20:27:24;99766.00;;;12.00
65569;BMP180;52211;50.154;8.682;2023-12-20T20:29:51;99760.00;;;12.00
65569;BMP180;52211;50.154;8.682;2023-12-20T20:32:18;99760.00;;;12.00
65569;BMP180;52211;50.154;8.682;2023-12-20T20:34:45;99758.00;;;12.00
65569;BMP180;52211;50.154;8.682;2023-12-20T20:37:17;99765.00;;;12.00
65569;BMP180;52211;50.154;8.682;2023-12-20T20:39:44;99763.00;;;11.90
65569;BMP180;52211;50.154;8.682;2023-12-20T20:42:15;99760.00;;;11.90
65569;BMP180;52211;50.154;8.682;2023-12-20T20:44:42;99752.00;;;11.90
65569;BMP180;52211;50.154;8.682;2023-12-20T20:47:09;99756.00;;;11.90
65569;BMP180;52211;50.154;8.682;2023-12-20T20:49:36;99751.00;;;12.00
65569;BMP180;52211;50.154;8.682;2023-12-20T20:52:05;99746.00;;;12.00
65569;BMP180;52211;50.154;8.682;2023-12-20T20:54:37;99735.00;;;12.00
65569;BMP180;52211;50.154;8.682;2023-12-20T20:57:04;99730.00;;;12.00
65569;BMP180;52211;50.154;8.682;2023-12-20T20:59:34;99721.00;;;12.00
65569;BMP180;52211;50.154;8.682;2023-12-20T21:02:08;99724.00;;;12.00
65569;BMP180;52211;50.154;8.682;2023-12-20T21:04:35;99727.00;;;12.00
65569;BMP180;52211;50.154;8.682;2023-12-20T21:07:04;99711.00;;;12.00
65569;BMP180;52211;50.154;8.682;2023-12-20T21:09:34;99715.00;;;12.00
65569;BMP180;52211;50.154;8.682;2023-12-20T21:12:00;99705.00;;;12.00
65569;BMP180;52211;50.154;8.682;2023-12-20T21:14:30;99696.00;;;12.10
65569;BMP180;52211;50.154;8.682;2023-12-20T21:16:56;99698.00;;;12.10
65569;BMP180;52211;50.154;8.682;2023-12-20T21:19:31;99699.00;;;12.10
65569;BMP180;52211;50.154;8.682;2023-12-20T21:22:01;99690.00;;;12.10
65569;BMP180;52211;50.154;8.682;2023-12-20T21:24:29;99687.00;;;12.10
65569;BMP180;52211;50.154;8.682;2023-12-20T21:26:58;99692.00;;;12.20
65569;BMP180;52211;50.154;8.682;2023-12-20T21:29:29;99682.00;;;12.20
65569;BMP180;52211;50.154;8.682;2023-12-20T21:32:01;99675.00;;;12.20
65569;BMP180;52211;50.154;8.682;2023-12-20T21:34:28;99667.00;;;12.20
65569;BMP180;52211;50.154;8.682;2023-12-20T21:36:57;99681.00;;;12.30
65569;BMP180;52211;50.154;8.682;2023-12-20T21:39:27;99680.00;;;12.30
65569;BMP180;52211;50.154;8.682;2023-12-20T21:41:55;99679.00;;;12.30
65569;BMP180;52211;50.154;8.682;2023-12-20T21:44:22;99675.00;;;12.30
65569;BMP180;52211;50.154;8.682;2023-12-20T21:46:52;99665.00;;;12.30
65569;BMP180;52211;50.154;8.682;2023-12-20T21:49:21;99663.00;;;12.30
65569;BMP180;52211;50.154;8.682;2023-12-20T21:51:53;99652.00;;;12.30
65569;BMP180;52211;50.154;8.682;2023-12-20T21:54:20;99644.00;;;12.30
65569;BMP180;52211;50.154;8.682;2023-12-20T21:56:50;99639.00;;;12.30
65569;BMP180;52211;50.154;8.682;2023-12-20T21:59:18;99630.00;;;12.30
65569;BMP180;52211;50.154;8.682;2023-12-20T22:01:51;99633.00;;;12.30
65569;BMP180;52211;50.154;8.682;2023-12-20T22:04:20;99624.00;;;12.30
65569;BMP180;52211;50.154;8.682;2023-12-20T22:06:49;99640.00;;;12.40
65569;BMP180;52211;50.154;8.682;2023-12-20T22:09:19;99629.00;;;12.30
65569;BMP180;52211;50.154;8.682;2023-12-20T22:11:51;99617.00;;;12.30
65569;BMP180;52211;50.154;8.682;2023-12-20T22:14:23;99626.00;;;12.30
65569;BMP180;52211;50.154;8.682;2023-12-20T22:16:52;99618.00;;;12.30
65569;BMP180;52211;50.154;8.682;2023-12-20T22:19:21;99625.00;;;12.30
65569;BMP180;52211;50.154;8.682;2023-12-20T22:21:48;99618.00;;;12.30
65569;BMP180;52211;50.154;8.682;2023-12-20T22:24:18;99616.00;;;12.30
65569;BMP180;52211;50.154;8.682;2023-12-20T22:26:49;99612.00;;;12.30
65569;BMP180;52211;50.154;8.682;2023-12-20T22:29:16;99610.00;;;12.20
65569;BMP180;52211;50.154;8.682;2023-12-20T22:31:45;99599.00;;;12.20
65569;BMP180;52211;50.154;8.682;2023-12-20T22:34:15;99584.00;;;12.20
65569;BMP180;52211;50.154;8.682;2023-12-20T22:36:47;99595.00;;;12.20
65569;BMP180;52211;50.154;8.682;2023-12-20T22:39:14;99600.00;;;12.10
65569;BMP180;52211;50.154;8.682;2023-12-20T22:41:42;99597.00;;;12.10
65569;BMP180;52211;50.154;8.682;2023-12-20T22:44:11;99590.00;;;12.10
65569;BMP180;52211;50.154;8.682;2023-12-20T22:46:37;99594.00;;;12.10
65569;BMP180;52211;50.154;8.682;2023-12-20T22:49:14;99586.00;;;12.10
65569;BMP180;52211;50.154;8.682;2023-12-20T22:51:41;99581.00;;;12.10
65569;BMP180;52211;50.154;8.682;2023-12-20T22:54:08;99574.00;;;12.10
65569;BMP180;52211;50.154;8.682;2023-12-20T22:56:37;99579.00;;;12.00
65569;BMP180;52211;50.154;8.682;2023-12-20T22:59:06;99580.00;;;12.00
65569;BMP180;52211;50.154;8.682;2023-12-20T23:01:33;99582.00;;;12.00
65569;BMP180;52211;50.154;8.682;2023-12-20T23:04:05;99578.00;;;12.00
65569;BMP180;52211;50.154;8.682;2023-12-20T23:06:32;99580.00;;;12.00
65569;BMP180;52211;50.154;8.682;2023-12-20T23:08:59;99564.00;;;12.00
65569;BMP180;52211;50.154;8.682;2023-12-20T23:11:29;99548.00;;;12.00
65569;BMP180;52211;50.154;8.682;2023-12-20T23:13:56;99540.00;;;12.00
65569;BMP180;52211;50.154;8.682;2023-12-20T23:16:39;99555.00;;;12.10